Time;durP1;ratioP1;P1;durP2;ratioP2;P2;SDS_P1;SDS_P2;PMS_P1;PMS_P2;Temp;Humidity;BMP_temperature;BMP_pressure;BME280_temperature;BME280_humidity;BME280_pressure;Samples;Min_cycle;Max_cycle;Signal;HPM_P1;HPM_P2
2021/07/27 00:01:14;;;;;;;72.43;66.47;;;;;;;;;;5010857;28;20491;-54
2021/07/27 00:03:40;;;;;;;68.90;62.17;;;;;;;;;;5010587;28;20458;-54
2021/07/27 00:06:07;;;;;;;63.40;57.70;;;;;;;;;;5010445;28;20410;-53
2021/07/27 00:08:36;;;;;;;60.30;54.23;;;;;;;;;;5010596;28;20884;-54
2021/07/27 00:11:06;;;;;;;50.67;33.70;;;;;;;;;;5012005;28;20404;-53
2021/07/27 00:13:32;;;;;;;52.17;46.67;;;;;;;;;;5014580;28;20938;-54
2021/07/27 00:15:58;;;;;;;45.07;31.50;;;;;;;;;;5013972;28;20690;-57
2021/07/27 00:18:24;;;;;;;42.50;21.57;;;;;;;;;;5014174;28;21003;-56
2021/07/27 00:20:50;;;;;;;43.63;27.40;;;;;;;;;;5014093;28;20461;-56
2021/07/27 00:23:16;;;;;;;42.00;21.67;;;;;;;;;;5014134;28;20499;-55
2021/07/27 00:25:42;;;;;;;39.53;17.40;;;;;;;;;;5013998;28;20406;-53
2021/07/27 00:28:09;;;;;;;39.67;14.47;;;;;;;;;;5013796;28;20429;-55
2021/07/27 00:30:35;;;;;;;38.73;11.93;;;;;;;;;;5013987;28;20403;-54
2021/07/27 00:33:01;;;;;;;38.80;12.30;;;;;;;;;;5013879;28;20526;-55
2021/07/27 00:35:28;;;;;;;40.70;12.43;;;;;;;;;;5013904;28;20814;-58
2021/07/27 00:38:07;;;;;;;41.53;11.33;;;;;;;;;;5013761;28;20782;-53
2021/07/27 00:40:33;;;;;;;163.93;46.27;;;;;;;;;;5013993;28;20897;-54
2021/07/27 00:43:03;;;;;;;39.53;14.37;;;;;;;;;;5013672;28;20807;-54
2021/07/27 00:45:29;;;;;;;40.90;17.30;;;;;;;;;;5013956;28;20743;-55
2021/07/27 00:47:54;;;;;;;40.57;17.87;;;;;;;;;;5014172;28;20402;-53
2021/07/27 00:50:20;;;;;;;42.37;17.40;;;;;;;;;;5013908;28;20404;-53
2021/07/27 00:52:46;;;;;;;73.50;22.40;;;;;;;;;;5013563;28;20495;-53
2021/07/27 00:55:12;;;;;;;44.50;22.03;;;;;;;;;;5013416;28;20415;-53
2021/07/27 00:57:39;;;;;;;45.10;23.13;;;;;;;;;;5013356;28;20400;-53
2021/07/27 01:00:05;;;;;;;47.57;27.10;;;;;;;;;;5013560;28;20410;-53
2021/07/27 01:02:31;;;;;;;49.10;29.53;;;;;;;;;;5012690;28;20456;-54
2021/07/27 01:04:58;;;;;;;49.23;28.07;;;;;;;;;;5012710;28;20489;-55
2021/07/27 01:07:25;;;;;;;51.97;32.00;;;;;;;;;;5013006;28;20759;-47
2021/07/27 01:09:51;;;;;;;52.07;30.40;;;;;;;;;;5013605;28;20450;-47
2021/07/27 01:12:18;;;;;;;54.40;36.10;;;;;;;;;;5013124;28;20925;-47
2021/07/27 01:14:44;;;;;;;54.57;34.33;;;;;;;;;;5012854;28;20399;-50
2021/07/27 01:17:10;;;;;;;55.63;36.43;;;;;;;;;;5013168;28;20434;-48
2021/07/27 01:43:43;;;;;;;771.07;217.60;;;;;;;;;;5012328;28;20465;-49
2021/07/27 01:46:11;;;;;;;224.13;183.03;;;;;;;;;;5012412;28;20461;-49
2021/07/27 01:48:37;;;;;;;2.87;1.80;;;;;;;;;;5012433;28;20424;-47
2021/07/27 01:51:03;;;;;;;85.40;6.63;;;;;;;;;;5012349;28;20429;-47
2021/07/27 01:53:36;;;;;;;2.50;2.30;;;;;;;;;;5012410;28;20505;-47
2021/07/27 01:56:02;;;;;;;2.93;2.73;;;;;;;;;;5012079;28;20409;-47
2021/07/27 01:58:28;;;;;;;2.73;2.50;;;;;;;;;;5012237;28;20818;-49
2021/07/27 02:00:54;;;;;;;2.87;2.70;;;;;;;;;;5012211;28;20890;-50
2021/07/27 02:03:26;;;;;;;2.50;2.40;;;;;;;;;;5012090;28;20466;-51
2021/07/27 02:05:53;;;;;;;3.33;3.03;;;;;;;;;;5012241;28;20411;-49
2021/07/27 02:08:21;;;;;;;3.40;3.20;;;;;;;;;;5012007;28;20419;-47
2021/07/27 02:10:51;;;;;;;3.60;2.40;;;;;;;;;;5011995;28;20415;-48
2021/07/27 02:13:27;;;;;;;3.17;2.97;;;;;;;;;;5012022;28;20905;-47
2021/07/27 02:15:53;;;;;;;2.70;2.53;;;;;;;;;;5011952;28;20432;-48
2021/07/27 02:18:19;;;;;;;2.90;2.70;;;;;;;;;;5011967;28;20994;-49
2021/07/27 02:20:45;;;;;;;3.10;2.90;;;;;;;;;;5011821;28;20899;-51
2021/07/27 02:23:11;;;;;;;3.77;2.67;;;;;;;;;;5011698;28;20459;-51
2021/07/27 02:25:38;;;;;;;4.13;3.10;;;;;;;;;;5011340;28;20398;-50
2021/07/27 02:28:06;;;;;;;7.97;3.80;;;;;;;;;;5011682;28;20522;-47
2021/07/27 02:30:39;;;;;;;3.47;3.20;;;;;;;;;;5011751;28;20412;-47
2021/07/27 02:33:05;;;;;;;4.03;3.73;;;;;;;;;;5011091;28;20534;-49
2021/07/27 02:35:33;;;;;;;4.33;4.00;;;;;;;;;;5011237;28;20388;-50
2021/07/27 02:37:59;;;;;;;3.87;3.67;;;;;;;;;;5011592;28;20450;-47
2021/07/27 02:40:26;;;;;;;4.00;3.70;;;;;;;;;;5011421;28;20407;-48
2021/07/27 02:42:52;;;;;;;4.70;4.40;;;;;;;;;;5011362;28;20785;-50
2021/07/27 02:45:20;;;;;;;5.33;4.83;;;;;;;;;;5011310;28;20406;-47
2021/07/27 02:47:46;;;;;;;7.03;4.50;;;;;;;;;;5009991;28;20411;-47
2021/07/27 02:50:13;;;;;;;5.20;4.77;;;;;;;;;;5011354;28;20430;-47
2021/07/27 02:52:42;;;;;;;6.83;4.93;;;;;;;;;;5011277;28;20439;-47
2021/07/27 02:55:09;;;;;;;5.10;4.70;;;;;;;;;;5011105;28;20782;-47
2021/07/27 02:57:35;;;;;;;4.60;4.20;;;;;;;;;;5011168;28;20410;-47
2021/07/27 03:00:01;;;;;;;5.47;4.97;;;;;;;;;;5011343;28;20406;-47
2021/07/27 03:02:40;;;;;;;4.50;4.13;;;;;;;;;;5011487;28;20431;-47
2021/07/27 03:05:07;;;;;;;5.93;5.40;;;;;;;;;;5010995;28;20767;-50
2021/07/27 03:07:37;;;;;;;4.93;4.60;;;;;;;;;;5010900;28;20410;-48
2021/07/27 03:10:21;;;;;;;8.33;4.80;;;;;;;;;;5011201;28;20409;-47
2021/07/27 03:12:49;;;;;;;7.33;5.40;;;;;;;;;;5010952;28;20481;-47
2021/07/27 03:15:15;;;;;;;5.83;5.27;;;;;;;;;;5010898;28;20410;-47
2021/07/27 03:17:41;;;;;;;5.63;4.90;;;;;;;;;;5011086;28;20829;-47
2021/07/27 03:20:08;;;;;;;152.27;43.83;;;;;;;;;;5010940;28;20382;-47
2021/07/27 03:22:34;;;;;;;8.63;7.73;;;;;;;;;;5010860;28;21044;-47
2021/07/27 03:25:00;;;;;;;8.87;7.33;;;;;;;;;;5010829;28;20491;-47
2021/07/27 03:27:26;;;;;;;51.40;27.47;;;;;;;;;;5010835;28;20784;-47
2021/07/27 03:29:52;;;;;;;8.57;6.60;;;;;;;;;;5010804;28;20450;-47
2021/07/27 03:32:18;;;;;;;43.63;39.80;;;;;;;;;;5010750;28;20896;-47
2021/07/27 03:34:44;;;;;;;6.70;6.00;;;;;;;;;;5010783;28;20425;-48
2021/07/27 03:37:13;;;;;;;6.17;5.67;;;;;;;;;;5010890;28;20442;-47
2021/07/27 03:39:39;;;;;;;8.80;6.40;;;;;;;;;;5010838;28;20485;-47
2021/07/27 03:42:06;;;;;;;6.33;5.73;;;;;;;;;;5010550;28;20801;-47
2021/07/27 03:44:32;;;;;;;5.67;5.17;;;;;;;;;;5011231;28;20383;-47
2021/07/27 03:47:00;;;;;;;21.90;7.57;;;;;;;;;;5014752;28;20418;-47
2021/07/27 03:49:29;;;;;;;6.10;5.37;;;;;;;;;;5014655;28;20901;-48
2021/07/27 03:51:55;;;;;;;5.30;4.90;;;;;;;;;;5014569;28;20779;-47
2021/07/27 03:54:22;;;;;;;9.23;7.30;;;;;;;;;;5015094;28;20447;-47
2021/07/27 03:56:47;;;;;;;6.17;5.60;;;;;;;;;;5014230;28;20411;-47
2021/07/27 03:59:14;;;;;;;7.30;6.57;;;;;;;;;;5014656;28;20433;-47
2021/07/27 04:01:41;;;;;;;7.13;5.90;;;;;;;;;;5014512;28;20899;-47
2021/07/27 04:04:07;;;;;;;16.70;7.07;;;;;;;;;;5014411;28;20461;-47
2021/07/27 04:06:34;;;;;;;8.00;5.80;;;;;;;;;;5014367;28;20411;-47
2021/07/27 04:09:00;;;;;;;6.90;6.07;;;;;;;;;;5014310;28;20449;-47
2021/07/27 04:11:27;;;;;;;5.80;5.30;;;;;;;;;;5014256;28;20481;-47
2021/07/27 04:13:53;;;;;;;6.00;5.40;;;;;;;;;;5014205;28;20959;-51
2021/07/27 04:16:19;;;;;;;7.50;5.60;;;;;;;;;;5014142;28;20405;-49
2021/07/27 04:18:48;;;;;;;7.23;6.57;;;;;;;;;;5014189;28;21161;-47
2021/07/27 04:21:14;;;;;;;6.80;6.00;;;;;;;;;;5014333;28;20452;-47
2021/07/27 04:23:40;;;;;;;7.53;6.57;;;;;;;;;;5014203;28;20457;-47
2021/07/27 04:26:06;;;;;;;7.10;6.20;;;;;;;;;;5014165;28;20485;-47
2021/07/27 04:28:32;;;;;;;13.10;7.13;;;;;;;;;;5013995;28;20438;-49
2021/07/27 04:30:58;;;;;;;6.40;5.80;;;;;;;;;;5013019;28;20910;-50
2021/07/27 04:33:24;;;;;;;9.30;7.40;;;;;;;;;;5013822;28;20407;-49
2021/07/27 04:35:50;;;;;;;7.83;6.83;;;;;;;;;;5013688;28;20458;-50
2021/07/27 04:38:17;;;;;;;8.53;6.70;;;;;;;;;;5013643;28;20508;-49
2021/07/27 04:40:43;;;;;;;9.47;7.77;;;;;;;;;;5013775;28;20950;-47
2021/07/27 04:43:09;;;;;;;8.00;7.03;;;;;;;;;;5013474;28;20498;-47
2021/07/27 04:45:35;;;;;;;11.53;6.70;;;;;;;;;;5013614;28;20414;-47
2021/07/27 04:48:01;;;;;;;9.63;7.37;;;;;;;;;;5013569;28;20433;-47
2021/07/27 04:50:27;;;;;;;12.73;7.87;;;;;;;;;;5013626;28;20399;-47
2021/07/27 04:52:59;;;;;;;378.53;155.77;;;;;;;;;;5013331;28;20417;-48
2021/07/27 04:55:25;;;;;;;1.80;1.67;;;;;;;;;;5013318;28;20922;-47
2021/07/27 04:57:51;;;;;;;117.00;24.03;;;;;;;;;;5012669;28;20522;-47
2021/07/27 05:00:20;;;;;;;29.10;16.50;;;;;;;;;;5013738;28;20412;-47
2021/07/27 05:02:46;;;;;;;40.77;27.80;;;;;;;;;;5013171;28;20444;-47
2021/07/27 05:05:12;;;;;;;78.97;29.77;;;;;;;;;;5012966;28;20930;-47
2021/07/27 05:07:38;;;;;;;34.40;25.03;;;;;;;;;;5012488;28;20462;-47
2021/07/27 05:10:04;;;;;;;35.97;26.73;;;;;;;;;;5013004;28;20911;-47
2021/07/27 05:12:30;;;;;;;36.37;26.27;;;;;;;;;;5012597;28;20415;-50
2021/07/27 05:14:56;;;;;;;85.07;27.00;;;;;;;;;;5011131;28;20422;-49
2021/07/27 05:17:22;;;;;;;183.57;30.47;;;;;;;;;;5012493;28;20411;-48
2021/07/27 05:19:49;;;;;;;144.97;16.87;;;;;;;;;;5012428;28;20510;-47
2021/07/27 05:22:15;;;;;;;13.97;7.37;;;;;;;;;;5012336;28;20447;-47
2021/07/27 05:24:41;;;;;;;12.57;6.73;;;;;;;;;;5012085;28;20466;-47
2021/07/27 05:27:07;;;;;;;13.73;7.07;;;;;;;;;;5012525;28;20400;-47
2021/07/27 05:29:33;;;;;;;20.13;11.40;;;;;;;;;;5010639;28;20543;-48
2021/07/27 05:32:00;;;;;;;23.90;13.30;;;;;;;;;;5013022;28;20442;-48
2021/07/27 05:34:25;;;;;;;23.43;12.80;;;;;;;;;;5012121;28;20442;-48
2021/07/27 05:36:52;;;;;;;34.57;24.67;;;;;;;;;;5012635;28;20914;-48
2021/07/27 05:39:18;;;;;;;36.73;26.17;;;;;;;;;;5012500;28;20510;-48
2021/07/27 05:41:44;;;;;;;29.47;20.63;;;;;;;;;;5012728;28;20444;-48
2021/07/27 05:44:10;;;;;;;28.97;16.80;;;;;;;;;;5012486;28;20485;-49
2021/07/27 05:46:36;;;;;;;20.33;13.30;;;;;;;;;;5012485;28;20400;-48
2021/07/27 05:49:04;;;;;;;26.43;14.80;;;;;;;;;;5012438;28;20426;-48
2021/07/27 05:51:30;;;;;;;24.10;12.40;;;;;;;;;;5012455;28;20401;-48
2021/07/27 05:53:56;;;;;;;25.07;15.60;;;;;;;;;;5012408;28;20401;-47
2021/07/27 05:56:22;;;;;;;24.50;14.57;;;;;;;;;;5012206;28;20407;-48
2021/07/27 05:58:48;;;;;;;26.17;14.80;;;;;;;;;;5012372;28;20888;-48
2021/07/27 06:01:14;;;;;;;28.37;12.80;;;;;;;;;;5012328;28;20482;-48
2021/07/27 06:03:40;;;;;;;23.43;12.87;;;;;;;;;;5012276;28;20839;-48
2021/07/27 06:06:06;;;;;;;24.53;13.63;;;;;;;;;;5011996;28;20483;-48
2021/07/27 06:08:32;;;;;;;18.60;10.37;;;;;;;;;;5012354;28;20897;-48
2021/07/27 06:10:58;;;;;;;27.90;19.33;;;;;;;;;;5012436;28;20978;-48
2021/07/27 06:13:24;;;;;;;29.00;19.27;;;;;;;;;;5012343;28;20406;-48
2021/07/27 06:15:50;;;;;;;25.27;14.53;;;;;;;;;;5012036;28;20900;-48
2021/07/27 06:18:16;;;;;;;22.43;13.83;;;;;;;;;;5012023;28;20431;-49
2021/07/27 06:20:42;;;;;;;18.67;12.90;;;;;;;;;;5011979;28;20410;-50
2021/07/27 06:23:08;;;;;;;22.03;14.20;;;;;;;;;;5011879;28;20452;-49
2021/07/27 06:25:37;;;;;;;17.90;11.37;;;;;;;;;;5011738;28;20445;-48
2021/07/27 06:28:04;;;;;;;18.40;11.33;;;;;;;;;;5011832;28;20452;-48
2021/07/27 06:30:30;;;;;;;11.57;8.93;;;;;;;;;;5011881;28;20499;-48
2021/07/27 06:32:57;;;;;;;14.27;10.50;;;;;;;;;;5011497;28;20513;-48
2021/07/27 06:35:23;;;;;;;15.00;10.23;;;;;;;;;;5011468;28;20700;-48
2021/07/27 06:37:51;;;;;;;15.27;9.80;;;;;;;;;;5011599;28;21010;-49
2021/07/27 06:40:17;;;;;;;13.73;10.47;;;;;;;;;;5011675;28;20476;-49
2021/07/27 06:42:43;;;;;;;11.90;9.40;;;;;;;;;;5005078;28;20461;-47
2021/07/27 06:45:09;;;;;;;11.67;9.57;;;;;;;;;;5007984;28;20422;-49
2021/07/27 06:47:35;;;;;;;18.97;9.23;;;;;;;;;;5014113;28;20897;-50
2021/07/27 06:50:05;;;;;;;13.97;9.50;;;;;;;;;;5012734;28;20403;-50
2021/07/27 06:52:31;;;;;;;12.77;9.00;;;;;;;;;;5010899;28;20832;-47
2021/07/27 06:54:57;;;;;;;10.33;8.10;;;;;;;;;;5011075;28;20406;-47
2021/07/27 06:57:23;;;;;;;12.83;8.70;;;;;;;;;;5011132;28;20929;-47
2021/07/27 06:59:49;;;;;;;9.27;7.20;;;;;;;;;;5011218;28;20430;-47
2021/07/27 07:02:15;;;;;;;12.87;7.63;;;;;;;;;;5011010;28;20495;-47
2021/07/27 07:04:41;;;;;;;11.97;7.27;;;;;;;;;;5011100;28;20834;-47
2021/07/27 07:07:08;;;;;;;11.83;7.60;;;;;;;;;;5011088;28;20765;-47
2021/07/27 07:09:34;;;;;;;10.73;6.80;;;;;;;;;;5011531;28;20430;-47
2021/07/27 07:12:00;;;;;;;7.63;6.57;;;;;;;;;;5011113;28;20407;-47
2021/07/27 07:14:26;;;;;;;16.07;8.73;;;;;;;;;;5011125;28;20403;-46
2021/07/27 07:16:52;;;;;;;10.13;7.30;;;;;;;;;;5010858;28;20418;-46
2021/07/27 07:19:19;;;;;;;212.17;21.90;;;;;;;;;;5010632;28;20422;-47
2021/07/27 07:21:45;;;;;;;13.80;9.83;;;;;;;;;;5010831;28;20407;-49
2021/07/27 07:24:11;;;;;;;106.97;17.23;;;;;;;;;;5010924;28;20541;-49
2021/07/27 07:26:39;;;;;;;8.73;6.50;;;;;;;;;;5010821;28;20486;-49
2021/07/27 07:29:05;;;;;;;11.33;6.03;;;;;;;;;;5010697;28;20962;-50
2021/07/27 07:31:31;;;;;;;9.40;6.53;;;;;;;;;;5010966;28;20430;-47
2021/07/27 07:33:58;;;;;;;7.77;5.80;;;;;;;;;;5010889;28;20406;-47
2021/07/27 07:36:24;;;;;;;8.30;6.43;;;;;;;;;;5010823;28;20457;-51
2021/07/27 07:38:50;;;;;;;10.10;6.67;;;;;;;;;;5010693;28;20459;-49
2021/07/27 07:41:16;;;;;;;9.10;5.23;;;;;;;;;;5010835;28;20438;-51
2021/07/27 07:43:42;;;;;;;6.63;5.70;;;;;;;;;;5010967;28;20482;-52
2021/07/27 07:46:08;;;;;;;7.97;5.87;;;;;;;;;;5010653;28;20399;-50
2021/07/27 07:48:34;;;;;;;6.03;4.63;;;;;;;;;;5010756;28;20511;-50
2021/07/27 07:51:00;;;;;;;6.43;5.13;;;;;;;;;;5010983;28;20549;-47
2021/07/27 07:53:26;;;;;;;7.23;4.80;;;;;;;;;;5010953;28;20429;-46
2021/07/27 07:55:52;;;;;;;7.13;5.50;;;;;;;;;;5010965;28;20937;-47
2021/07/27 08:00:55;;;;;;;7.68;5.65;;;;;;;;;;5510470;22;20449;-49
2021/07/27 08:03:21;;;;;;;5.50;5.00;;;;;;;;;;5030909;28;20284;-48
2021/07/27 08:05:47;;;;;;;5.17;4.67;;;;;;;;;;5030533;28;20445;-49
2021/07/27 08:08:16;;;;;;;5.93;4.70;;;;;;;;;;5030348;28;20797;-49
2021/07/27 08:10:42;;;;;;;6.10;5.03;;;;;;;;;;5030000;28;20419;-48
2021/07/27 08:13:08;;;;;;;6.87;4.40;;;;;;;;;;5030241;28;20414;-48
2021/07/27 08:15:34;;;;;;;5.87;5.00;;;;;;;;;;5030987;28;20419;-50
2021/07/27 08:18:00;;;;;;;8.30;2.80;;;;;;;;;;5030365;28;20462;-51
2021/07/27 08:20:27;;;;;;;5.23;3.70;;;;;;;;;;5028461;28;20995;-50
2021/07/27 08:22:53;;;;;;;4.20;3.80;;;;;;;;;;5030044;28;20488;-50
2021/07/27 08:25:21;;;;;;;5.60;3.73;;;;;;;;;;5030169;28;20403;-50
2021/07/27 08:27:47;;;;;;;7.20;3.73;;;;;;;;;;5035568;28;20429;-51
2021/07/27 08:30:13;;;;;;;5.40;3.73;;;;;;;;;;5029832;28;20424;-51
2021/07/27 08:32:46;;;;;;;4.53;4.07;;;;;;;;;;5032881;28;20562;-49
2021/07/27 08:35:12;;;;;;;4.00;3.60;;;;;;;;;;5033770;28;20950;-51
2021/07/27 08:37:38;;;;;;;7.20;3.50;;;;;;;;;;5033932;28;20405;-50
2021/07/27 08:40:05;;;;;;;4.50;4.07;;;;;;;;;;5033435;28;20935;-50
2021/07/27 08:42:31;;;;;;;6.23;4.13;;;;;;;;;;5033867;28;20470;-51
2021/07/27 08:45:02;;;;;;;4.60;3.97;;;;;;;;;;5033854;28;20773;-51
2021/07/27 08:47:28;;;;;;;4.97;3.83;;;;;;;;;;5033820;28;20426;-49
2021/07/27 08:49:58;;;;;;;3.93;3.30;;;;;;;;;;5033144;28;20504;-50
2021/07/27 08:52:24;;;;;;;17.20;4.43;;;;;;;;;;5033638;28;20413;-51
2021/07/27 08:54:49;;;;;;;34.00;7.97;;;;;;;;;;5033283;28;20409;-53
2021/07/27 08:57:15;;;;;;;4.90;4.50;;;;;;;;;;5033297;28;20492;-51
2021/07/27 08:59:42;;;;;;;5.73;5.23;;;;;;;;;;5033018;28;20407;-51
2021/07/27 09:02:08;;;;;;;5.53;5.03;;;;;;;;;;5033111;28;20410;-50
2021/07/27 09:04:34;;;;;;;5.47;4.97;;;;;;;;;;5033047;28;20402;-52
2021/07/27 09:07:04;;;;;;;4.80;4.40;;;;;;;;;;5033025;28;20414;-51
2021/07/27 09:09:31;;;;;;;5.97;5.03;;;;;;;;;;5032908;28;20489;-51
2021/07/27 09:11:58;;;;;;;4.90;4.40;;;;;;;;;;5032991;28;20402;-51
2021/07/27 09:14:24;;;;;;;5.00;4.60;;;;;;;;;;5033076;28;20405;-51
2021/07/27 09:16:51;;;;;;;5.50;5.00;;;;;;;;;;5033025;28;20409;-50
2021/07/27 09:19:17;;;;;;;6.00;5.37;;;;;;;;;;5032881;28;20406;-50
2021/07/27 09:21:44;;;;;;;5.40;4.60;;;;;;;;;;5032513;28;20500;-51
2021/07/27 09:24:10;;;;;;;5.00;4.50;;;;;;;;;;5032735;28;20974;-50
2021/07/27 09:26:37;;;;;;;5.77;5.20;;;;;;;;;;5032815;28;20402;-52
2021/07/27 09:29:04;;;;;;;5.00;4.50;;;;;;;;;;5032741;28;20402;-50
2021/07/27 09:31:30;;;;;;;5.40;4.93;;;;;;;;;;5032437;28;20473;-50
2021/07/27 09:33:56;;;;;;;5.40;4.90;;;;;;;;;;5032692;28;20495;-50
2021/07/27 09:36:26;;;;;;;5.50;4.73;;;;;;;;;;5032574;28;20457;-50
2021/07/27 09:39:02;;;;;;;5.60;5.10;;;;;;;;;;5032617;28;20867;-50
2021/07/27 09:41:29;;;;;;;7.57;6.90;;;;;;;;;;5032309;28;20508;-51
2021/07/27 09:43:56;;;;;;;5.27;4.60;;;;;;;;;;5032210;28;20463;-52
2021/07/27 09:46:22;;;;;;;4.47;4.17;;;;;;;;;;5032432;28;20414;-50
2021/07/27 09:48:49;;;;;;;5.60;5.10;;;;;;;;;;5032322;28;20905;-49
2021/07/27 09:51:15;;;;;;;5.60;5.10;;;;;;;;;;5031962;28;21038;-51
2021/07/27 09:53:42;;;;;;;5.57;5.07;;;;;;;;;;5032333;28;20489;-50
2021/07/27 09:56:08;;;;;;;6.97;5.53;;;;;;;;;;5032404;28;20417;-50
2021/07/27 09:58:34;;;;;;;6.97;4.43;;;;;;;;;;5032260;28;20960;-51
2021/07/27 10:01:03;;;;;;;9.30;5.37;;;;;;;;;;5031869;28;20426;-51
2021/07/27 10:03:31;;;;;;;5.70;5.20;;;;;;;;;;5031725;28;20987;-50
2021/07/27 10:06:00;;;;;;;5.00;4.60;;;;;;;;;;5032054;28;20468;-50
2021/07/27 10:08:36;;;;;;;5.30;4.80;;;;;;;;;;5032198;28;20406;-51
2021/07/27 10:11:13;;;;;;;5.77;5.03;;;;;;;;;;5031718;28;20422;-52
2021/07/27 10:13:40;;;;;;;6.13;5.30;;;;;;;;;;5032043;28;20417;-51
2021/07/27 10:16:07;;;;;;;5.10;4.70;;;;;;;;;;5031775;28;20403;-50
2021/07/27 10:18:34;;;;;;;5.90;5.30;;;;;;;;;;5031757;28;20425;-50
2021/07/27 10:21:25;;;;;;;5.30;4.80;;;;;;;;;;5031328;28;20418;-50
2021/07/27 10:24:19;;;;;;;5.43;4.93;;;;;;;;;;5031802;28;20461;-50
2021/07/27 10:26:46;;;;;;;6.63;5.90;;;;;;;;;;5029929;28;20489;-51
2021/07/27 10:29:12;;;;;;;8.57;7.10;;;;;;;;;;5031618;28;20402;-52
2021/07/27 10:31:38;;;;;;;8.50;6.20;;;;;;;;;;5031024;28;20859;-51
2021/07/27 10:34:04;;;;;;;8.20;6.63;;;;;;;;;;5031615;28;20410;-52
2021/07/27 10:36:40;;;;;;;8.80;6.63;;;;;;;;;;5031585;28;20456;-51
2021/07/27 10:39:06;;;;;;;8.97;6.30;;;;;;;;;;5031751;28;20456;-52
2021/07/27 10:41:59;;;;;;;6.80;6.10;;;;;;;;;;5031110;28;20804;-51
2021/07/27 10:44:35;;;;;;;7.80;6.77;;;;;;;;;;5028649;28;20496;-53
2021/07/27 10:47:01;;;;;;;7.63;6.80;;;;;;;;;;5031437;28;20414;-51
2021/07/27 10:49:28;;;;;;;7.93;6.87;;;;;;;;;;5031276;28;20437;-51
2021/07/27 10:51:54;;;;;;;7.53;6.83;;;;;;;;;;5031236;28;20886;-50
2021/07/27 10:54:30;;;;;;;7.73;6.43;;;;;;;;;;5030846;28;20517;-50
2021/07/27 10:56:58;;;;;;;7.83;7.00;;;;;;;;;;5031265;28;20433;-51
2021/07/27 10:59:24;;;;;;;7.03;6.30;;;;;;;;;;5031265;28;20434;-50
2021/07/27 11:01:52;;;;;;;9.00;6.80;;;;;;;;;;5030753;28;20423;-51
2021/07/27 11:04:19;;;;;;;7.17;6.57;;;;;;;;;;5031008;28;20516;-50
2021/07/27 11:06:45;;;;;;;7.23;6.23;;;;;;;;;;5031381;28;20406;-50
2021/07/27 11:09:13;;;;;;;7.30;6.60;;;;;;;;;;5029791;28;20410;-52
2021/07/27 11:11:44;;;;;;;7.50;6.70;;;;;;;;;;5030447;28;20420;-50
2021/07/27 11:14:10;;;;;;;8.40;7.03;;;;;;;;;;5030903;28;20437;-49
2021/07/27 11:16:43;;;;;;;8.40;7.07;;;;;;;;;;5030715;28;20487;-50
2021/07/27 11:19:10;;;;;;;8.70;7.77;;;;;;;;;;5030852;28;20455;-49
2021/07/27 11:21:39;;;;;;;9.57;7.67;;;;;;;;;;5030537;28;20510;-50
2021/07/27 11:24:05;;;;;;;10.67;7.40;;;;;;;;;;5030652;28;20951;-49
2021/07/27 11:26:40;;;;;;;8.60;7.70;;;;;;;;;;5030779;28;20406;-50
2021/07/27 11:29:10;;;;;;;9.83;8.07;;;;;;;;;;5012913;28;20448;-49
2021/07/27 11:31:48;;;;;;;8.00;7.20;;;;;;;;;;5030333;28;20425;-49
2021/07/27 11:34:25;;;;;;;10.63;8.37;;;;;;;;;;5030683;28;20413;-49
2021/07/27 11:36:52;;;;;;;8.03;7.30;;;;;;;;;;5030689;28;20448;-50
2021/07/27 11:39:18;;;;;;;10.10;7.20;;;;;;;;;;5030568;28;20412;-50
2021/07/27 11:41:44;;;;;;;8.77;7.73;;;;;;;;;;5030230;28;20841;-50
2021/07/27 11:44:12;;;;;;;9.03;7.20;;;;;;;;;;5030537;28;20486;-50
2021/07/27 11:46:40;;;;;;;9.30;7.73;;;;;;;;;;5030533;28;20434;-49
2021/07/27 11:49:09;;;;;;;10.33;8.20;;;;;;;;;;5030602;28;20409;-50
2021/07/27 11:51:36;;;;;;;7.57;6.87;;;;;;;;;;5030193;28;20426;-51
2021/07/27 11:54:02;;;;;;;8.50;6.40;;;;;;;;;;5030444;28;20431;-51
2021/07/27 11:56:28;;;;;;;7.53;6.83;;;;;;;;;;5030490;28;20406;-51
2021/07/27 11:59:04;;;;;;;6.63;6.03;;;;;;;;;;5030467;28;20398;-50
2021/07/27 12:01:36;;;;;;;7.50;6.80;;;;;;;;;;5030150;28;20464;-50
2021/07/27 12:04:02;;;;;;;7.73;6.37;;;;;;;;;;5030237;28;20454;-51
2021/07/27 12:06:28;;;;;;;7.03;6.40;;;;;;;;;;5032395;28;20459;-51
2021/07/27 12:08:54;;;;;;;6.57;5.70;;;;;;;;;;5034231;28;20487;-51
2021/07/27 12:11:20;;;;;;;5.77;5.27;;;;;;;;;;5033954;28;20426;-51
2021/07/27 12:13:45;;;;;;;5.43;4.90;;;;;;;;;;5034163;28;20398;-52
2021/07/27 12:16:11;;;;;;;5.33;4.83;;;;;;;;;;5034105;28;20398;-51
2021/07/27 12:18:37;;;;;;;5.63;5.13;;;;;;;;;;5034121;28;20412;-51
2021/07/27 12:21:03;;;;;;;4.50;4.10;;;;;;;;;;5033661;28;20417;-51
2021/07/27 12:23:29;;;;;;;5.27;4.80;;;;;;;;;;5034008;28;20983;-50
2021/07/27 12:25:56;;;;;;;5.87;5.00;;;;;;;;;;5034155;28;20445;-50
2021/07/27 12:28:22;;;;;;;4.80;4.40;;;;;;;;;;5033937;28;20910;-50
2021/07/27 12:30:48;;;;;;;5.27;4.80;;;;;;;;;;5033693;28;20406;-50
2021/07/27 12:33:15;;;;;;;5.47;4.97;;;;;;;;;;5034147;28;20945;-50
2021/07/27 12:35:41;;;;;;;6.17;4.27;;;;;;;;;;5033951;28;20893;-51
2021/07/27 12:38:07;;;;;;;4.97;4.10;;;;;;;;;;5033933;28;20417;-50
2021/07/27 12:40:33;;;;;;;5.20;4.53;;;;;;;;;;5033391;28;20504;-51
2021/07/27 12:42:59;;;;;;;5.40;4.90;;;;;;;;;;5033595;28;20446;-51
2021/07/27 12:45:25;;;;;;;6.17;4.90;;;;;;;;;;5033560;28;20886;-51
2021/07/27 12:47:51;;;;;;;7.67;5.37;;;;;;;;;;5033605;28;20433;-51
2021/07/27 12:50:17;;;;;;;5.00;4.60;;;;;;;;;;5015346;28;20529;-51
2021/07/27 12:52:43;;;;;;;4.60;4.10;;;;;;;;;;5033390;28;20780;-52
2021/07/27 12:55:09;;;;;;;5.83;4.80;;;;;;;;;;5033429;28;20749;-51
2021/07/27 12:57:38;;;;;;;6.40;4.63;;;;;;;;;;5033351;28;20959;-52
2021/07/27 13:00:06;;;;;;;7.40;5.20;;;;;;;;;;5032950;28;20951;-50
2021/07/27 13:02:31;;;;;;;4.90;4.60;;;;;;;;;;5033002;28;20461;-51
2021/07/27 13:04:57;;;;;;;5.70;5.20;;;;;;;;;;5033205;28;20387;-51
2021/07/27 13:07:23;;;;;;;5.20;4.80;;;;;;;;;;5033369;28;20395;-51
2021/07/27 13:09:49;;;;;;;4.70;4.30;;;;;;;;;;5032880;28;20838;-52
2021/07/27 13:12:15;;;;;;;5.30;4.87;;;;;;;;;;5033106;28;20453;-53
2021/07/27 13:14:42;;;;;;;5.00;4.50;;;;;;;;;;5032989;28;20402;-51
2021/07/27 13:17:09;;;;;;;5.60;4.97;;;;;;;;;;5032272;28;20934;-51
2021/07/27 13:19:35;;;;;;;5.40;4.90;;;;;;;;;;5032772;28;20497;-51
2021/07/27 13:22:05;;;;;;;5.50;4.90;;;;;;;;;;5032814;28;20489;-51
2021/07/27 13:24:31;;;;;;;5.50;5.00;;;;;;;;;;5032953;28;20466;-51
2021/07/27 13:26:58;;;;;;;4.73;4.33;;;;;;;;;;5032828;28;20452;-51
2021/07/27 13:29:24;;;;;;;8.63;5.27;;;;;;;;;;5032657;28;20897;-51
2021/07/27 13:31:50;;;;;;;5.23;4.80;;;;;;;;;;5032286;28;20426;-52
2021/07/27 13:34:19;;;;;;;5.30;4.70;;;;;;;;;;5032687;28;20402;-51
2021/07/27 13:36:45;;;;;;;6.70;5.57;;;;;;;;;;5032569;28;20411;-50
2021/07/27 13:39:11;;;;;;;5.50;4.90;;;;;;;;;;5032594;28;20464;-51
2021/07/27 13:41:37;;;;;;;5.07;4.60;;;;;;;;;;5032130;28;20426;-50
2021/07/27 13:44:03;;;;;;;6.83;4.70;;;;;;;;;;5032373;28;20536;-51
2021/07/27 13:46:29;;;;;;;5.33;4.83;;;;;;;;;;5032442;28;20466;-52
2021/07/27 13:48:56;;;;;;;5.53;5.03;;;;;;;;;;5032420;28;20455;-51
2021/07/27 13:51:22;;;;;;;5.50;5.00;;;;;;;;;;5032025;28;20932;-51
2021/07/27 13:53:48;;;;;;;4.67;4.27;;;;;;;;;;5032312;28;20489;-51
2021/07/27 13:56:14;;;;;;;4.90;4.50;;;;;;;;;;5032292;28;20481;-50
2021/07/27 13:58:40;;;;;;;5.60;5.10;;;;;;;;;;5032173;28;20493;-51
2021/07/27 14:01:06;;;;;;;5.23;4.80;;;;;;;;;;5031707;28;20532;-51
2021/07/27 14:03:33;;;;;;;5.00;4.60;;;;;;;;;;5031956;28;20466;-52
2021/07/27 14:05:59;;;;;;;4.73;4.27;;;;;;;;;;5032134;28;20409;-52
2021/07/27 14:08:25;;;;;;;5.43;4.93;;;;;;;;;;5032039;28;20485;-51
2021/07/27 14:10:51;;;;;;;4.70;4.30;;;;;;;;;;5031650;28;20417;-51
2021/07/27 14:13:17;;;;;;;37.10;7.53;;;;;;;;;;5031884;28;20402;-50
2021/07/27 14:15:43;;;;;;;6.10;5.57;;;;;;;;;;5032457;28;20796;-51
2021/07/27 14:18:09;;;;;;;7.00;6.30;;;;;;;;;;5031892;28;20413;-51
2021/07/27 14:20:35;;;;;;;7.00;6.20;;;;;;;;;;5030627;28;20898;-51
2021/07/27 14:23:01;;;;;;;8.57;6.60;;;;;;;;;;5031218;28;20531;-51
2021/07/27 14:25:27;;;;;;;6.83;5.93;;;;;;;;;;5031836;28;20825;-51
2021/07/27 14:27:56;;;;;;;9.90;6.30;;;;;;;;;;5031700;28;20493;-51
2021/07/27 14:30:23;;;;;;;7.10;6.00;;;;;;;;;;5030092;28;20418;-51
2021/07/27 14:32:49;;;;;;;7.43;6.00;;;;;;;;;;5031654;28;20402;-51
2021/07/27 14:35:15;;;;;;;7.70;6.67;;;;;;;;;;5031640;28;20410;-51
2021/07/27 14:37:42;;;;;;;6.27;5.60;;;;;;;;;;5031597;28;20964;-51
2021/07/27 14:40:08;;;;;;;6.93;6.10;;;;;;;;;;5031310;28;20433;-51
2021/07/27 14:42:34;;;;;;;10.73;6.20;;;;;;;;;;5031290;28;20459;-50
2021/07/27 14:45:00;;;;;;;7.80;6.70;;;;;;;;;;5031519;28;20409;-51
2021/07/27 14:47:27;;;;;;;150.43;23.40;;;;;;;;;;5031590;28;20486;-50
2021/07/27 14:49:53;;;;;;;5.00;4.23;;;;;;;;;;5031487;28;20445;-51
2021/07/27 14:52:19;;;;;;;7.20;5.67;;;;;;;;;;5031357;28;20877;-51
2021/07/27 14:54:45;;;;;;;8.30;5.27;;;;;;;;;;5031285;28;20903;-51
2021/07/27 14:57:12;;;;;;;8.67;5.83;;;;;;;;;;5031344;28;20422;-50
2021/07/27 14:59:38;;;;;;;5.20;4.70;;;;;;;;;;5031141;28;20426;-50
2021/07/27 15:02:04;;;;;;;7.63;5.50;;;;;;;;;;5030931;28;20874;-50